sensor_id;sensor_type;location;lat;lon;timestamp;P1;durP1;ratioP1;P2;durP2;ratioP2
19308;SDS011;9789;50.010;19.890;2022-10-03T00:01:45;2.80;;;2.30;;
19308;SDS011;9789;50.010;19.890;2022-10-03T00:07:32;3.17;;;2.30;;
19308;SDS011;9789;50.010;19.890;2022-10-03T00:10:21;3.67;;;2.57;;
19308;SDS011;9789;50.010;19.890;2022-10-03T00:13:02;2.80;;;2.37;;
19308;SDS011;9789;50.010;19.890;2022-10-03T00:15:38;5.27;;;2.50;;
19308;SDS011;9789;50.010;19.890;2022-10-03T00:18:19;3.93;;;2.60;;
19308;SDS011;9789;50.010;19.890;2022-10-03T00:21:02;3.10;;;2.03;;
19308;SDS011;9789;50.010;19.890;2022-10-03T00:23:42;3.13;;;2.40;;
19308;SDS011;9789;50.010;19.890;2022-10-03T00:26:19;3.00;;;2.33;;
19308;SDS011;9789;50.010;19.890;2022-10-03T00:29:02;3.50;;;2.20;;
19308;SDS011;9789;50.010;19.890;2022-10-03T00:31:44;4.60;;;2.20;;
19308;SDS011;9789;50.010;19.890;2022-10-03T00:34:26;4.53;;;2.50;;
19308;SDS011;9789;50.010;19.890;2022-10-03T00:37:09;3.17;;;1.97;;
19308;SDS011;9789;50.010;19.890;2022-10-03T00:39:57;3.37;;;2.40;;
19308;SDS011;9789;50.010;19.890;2022-10-03T00:42:51;3.83;;;2.80;;
19308;SDS011;9789;50.010;19.890;2022-10-03T00:45:43;4.00;;;2.73;;
19308;SDS011;9789;50.010;19.890;2022-10-03T00:48:40;4.57;;;2.47;;
19308;SDS011;9789;50.010;19.890;2022-10-03T00:51:41;5.60;;;3.13;;
19308;SDS011;9789;50.010;19.890;2022-10-03T00:54:24;5.23;;;3.03;;
19308;SDS011;9789;50.010;19.890;2022-10-03T00:57:10;4.37;;;2.70;;
19308;SDS011;9789;50.010;19.890;2022-10-03T00:59:50;5.97;;;2.67;;
19308;SDS011;9789;50.010;19.890;2022-10-03T01:02:33;4.40;;;2.60;;
19308;SDS011;9789;50.010;19.890;2022-10-03T01:05:15;4.37;;;2.60;;
19308;SDS011;9789;50.010;19.890;2022-10-03T01:08:05;3.60;;;2.63;;
19308;SDS011;9789;50.010;19.890;2022-10-03T01:10:50;3.70;;;2.47;;
19308;SDS011;9789;50.010;19.890;2022-10-03T01:13:29;4.57;;;2.30;;
19308;SDS011;9789;50.010;19.890;2022-10-03T01:16:08;3.27;;;2.57;;
19308;SDS011;9789;50.010;19.890;2022-10-03T01:18:49;4.23;;;2.40;;
19308;SDS011;9789;50.010;19.890;2022-10-03T01:21:30;2.80;;;2.20;;
19308;SDS011;9789;50.010;19.890;2022-10-03T01:24:34;4.10;;;2.40;;
19308;SDS011;9789;50.010;19.890;2022-10-03T01:27:17;4.17;;;2.50;;
19308;SDS011;9789;50.010;19.890;2022-10-03T01:29:57;3.30;;;2.23;;
19308;SDS011;9789;50.010;19.890;2022-10-03T01:32:46;3.50;;;2.40;;
19308;SDS011;9789;50.010;19.890;2022-10-03T01:35:24;4.47;;;2.30;;
19308;SDS011;9789;50.010;19.890;2022-10-03T01:38:00;3.17;;;2.17;;
19308;SDS011;9789;50.010;19.890;2022-10-03T01:40:34;5.10;;;2.40;;
19308;SDS011;9789;50.010;19.890;2022-10-03T01:43:09;3.73;;;2.27;;
19308;SDS011;9789;50.010;19.890;2022-10-03T01:45:46;2.73;;;1.90;;
19308;SDS011;9789;50.010;19.890;2022-10-03T01:48:28;2.73;;;2.27;;
19308;SDS011;9789;50.010;19.890;2022-10-03T01:51:06;4.40;;;2.40;;
19308;SDS011;9789;50.010;19.890;2022-10-03T01:53:40;3.50;;;2.10;;
19308;SDS011;9789;50.010;19.890;2022-10-03T01:56:20;4.47;;;2.37;;
19308;SDS011;9789;50.010;19.890;2022-10-03T01:58:57;4.40;;;1.97;;
19308;SDS011;9789;50.010;19.890;2022-10-03T02:01:35;3.00;;;2.23;;
19308;SDS011;9789;50.010;19.890;2022-10-03T02:04:14;2.60;;;2.17;;
19308;SDS011;9789;50.010;19.890;2022-10-03T02:06:51;3.57;;;2.37;;
19308;SDS011;9789;50.010;19.890;2022-10-03T02:09:27;6.57;;;2.43;;
19308;SDS011;9789;50.010;19.890;2022-10-03T02:12:06;2.20;;;2.00;;
19308;SDS011;9789;50.010;19.890;2022-10-03T02:14:41;3.77;;;2.27;;
19308;SDS011;9789;50.010;19.890;2022-10-03T02:17:27;3.00;;;2.10;;
19308;SDS011;9789;50.010;19.890;2022-10-03T02:20:11;3.40;;;2.63;;
19308;SDS011;9789;50.010;19.890;2022-10-03T02:22:50;2.60;;;2.20;;
19308;SDS011;9789;50.010;19.890;2022-10-03T02:25:22;4.13;;;2.77;;
19308;SDS011;9789;50.010;19.890;2022-10-03T02:28:07;3.67;;;2.50;;
19308;SDS011;9789;50.010;19.890;2022-10-03T02:30:55;2.63;;;2.30;;
19308;SDS011;9789;50.010;19.890;2022-10-03T02:34:03;3.07;;;2.20;;
19308;SDS011;9789;50.010;19.890;2022-10-03T02:37:06;2.10;;;1.87;;
19308;SDS011;9789;50.010;19.890;2022-10-03T02:40:24;3.27;;;1.90;;
19308;SDS011;9789;50.010;19.890;2022-10-03T02:43:26;2.33;;;1.70;;
19308;SDS011;9789;50.010;19.890;2022-10-03T02:49:33;2.10;;;1.90;;
19308;SDS011;9789;50.010;19.890;2022-10-03T02:52:29;2.20;;;1.90;;
19308;SDS011;9789;50.010;19.890;2022-10-03T02:55:38;2.63;;;1.83;;
19308;SDS011;9789;50.010;19.890;2022-10-03T03:01:51;2.27;;;1.97;;
19308;SDS011;9789;50.010;19.890;2022-10-03T03:04:38;2.63;;;1.90;;
19308;SDS011;9789;50.010;19.890;2022-10-03T03:07:38;2.23;;;1.80;;
19308;SDS011;9789;50.010;19.890;2022-10-03T03:16:40;2.73;;;1.70;;
19308;SDS011;9789;50.010;19.890;2022-10-03T03:19:23;2.80;;;2.00;;
19308;SDS011;9789;50.010;19.890;2022-10-03T03:22:08;2.07;;;1.80;;
19308;SDS011;9789;50.010;19.890;2022-10-03T03:24:55;2.43;;;1.90;;
19308;SDS011;9789;50.010;19.890;2022-10-03T03:27:39;1.60;;;1.50;;
19308;SDS011;9789;50.010;19.890;2022-10-03T03:30:15;4.73;;;1.90;;
19308;SDS011;9789;50.010;19.890;2022-10-03T03:32:49;1.97;;;1.70;;
19308;SDS011;9789;50.010;19.890;2022-10-03T03:35:29;2.50;;;1.80;;
19308;SDS011;9789;50.010;19.890;2022-10-03T03:38:11;1.70;;;1.60;;
19308;SDS011;9789;50.010;19.890;2022-10-03T03:40:50;3.30;;;2.10;;
19308;SDS011;9789;50.010;19.890;2022-10-03T03:43:35;1.90;;;1.73;;
19308;SDS011;9789;50.010;19.890;2022-10-03T03:46:19;2.13;;;1.90;;
19308;SDS011;9789;50.010;19.890;2022-10-03T03:49:04;2.20;;;1.83;;
19308;SDS011;9789;50.010;19.890;2022-10-03T03:51:44;2.17;;;1.87;;
19308;SDS011;9789;50.010;19.890;2022-10-03T03:54:36;2.10;;;1.77;;
19308;SDS011;9789;50.010;19.890;2022-10-03T04:00:12;1.57;;;1.47;;
19308;SDS011;9789;50.010;19.890;2022-10-03T04:02:44;1.70;;;1.60;;
19308;SDS011;9789;50.010;19.890;2022-10-03T04:08:38;1.73;;;1.63;;
19308;SDS011;9789;50.010;19.890;2022-10-03T04:11:18;2.07;;;1.70;;
19308;SDS011;9789;50.010;19.890;2022-10-03T04:14:00;2.40;;;1.83;;
19308;SDS011;9789;50.010;19.890;2022-10-03T04:16:57;1.60;;;1.50;;
19308;SDS011;9789;50.010;19.890;2022-10-03T04:19:56;2.07;;;1.43;;
19308;SDS011;9789;50.010;19.890;2022-10-03T04:22:43;1.53;;;1.40;;
19308;SDS011;9789;50.010;19.890;2022-10-03T04:25:28;2.17;;;1.53;;
19308;SDS011;9789;50.010;19.890;2022-10-03T04:28:18;1.53;;;1.43;;
19308;SDS011;9789;50.010;19.890;2022-10-03T04:31:18;1.67;;;1.57;;
19308;SDS011;9789;50.010;19.890;2022-10-03T04:33:57;1.70;;;1.60;;
19308;SDS011;9789;50.010;19.890;2022-10-03T04:36:50;2.53;;;1.73;;
19308;SDS011;9789;50.010;19.890;2022-10-03T04:39:31;1.77;;;1.50;;
19308;SDS011;9789;50.010;19.890;2022-10-03T04:42:08;1.70;;;1.60;;
19308;SDS011;9789;50.010;19.890;2022-10-03T04:44:48;1.67;;;1.40;;
19308;SDS011;9789;50.010;19.890;2022-10-03T04:47:31;1.60;;;1.50;;
19308;SDS011;9789;50.010;19.890;2022-10-03T04:50:12;2.00;;;1.50;;
19308;SDS011;9789;50.010;19.890;2022-10-03T04:52:55;1.50;;;1.40;;
19308;SDS011;9789;50.010;19.890;2022-10-03T04:55:44;2.03;;;1.47;;
19308;SDS011;9789;50.010;19.890;2022-10-03T04:58:20;3.67;;;1.60;;
19308;SDS011;9789;50.010;19.890;2022-10-03T05:01:02;1.57;;;1.47;;
19308;SDS011;9789;50.010;19.890;2022-10-03T05:03:40;1.67;;;1.57;;
19308;SDS011;9789;50.010;19.890;2022-10-03T05:06:21;1.70;;;1.60;;
19308;SDS011;9789;50.010;19.890;2022-10-03T05:09:00;1.70;;;1.60;;
19308;SDS011;9789;50.010;19.890;2022-10-03T05:11:43;2.00;;;1.77;;
19308;SDS011;9789;50.010;19.890;2022-10-03T05:14:21;1.60;;;1.50;;
19308;SDS011;9789;50.010;19.890;2022-10-03T05:16:58;1.50;;;1.40;;
19308;SDS011;9789;50.010;19.890;2022-10-03T05:19:37;3.27;;;1.80;;
19308;SDS011;9789;50.010;19.890;2022-10-03T05:22:16;1.50;;;1.40;;
19308;SDS011;9789;50.010;19.890;2022-10-03T05:24:56;1.63;;;1.43;;
19308;SDS011;9789;50.010;19.890;2022-10-03T05:27:32;1.83;;;1.53;;
19308;SDS011;9789;50.010;19.890;2022-10-03T05:30:08;1.77;;;1.67;;
19308;SDS011;9789;50.010;19.890;2022-10-03T05:32:46;1.43;;;1.33;;
19308;SDS011;9789;50.010;19.890;2022-10-03T05:35:23;1.60;;;1.47;;
19308;SDS011;9789;50.010;19.890;2022-10-03T05:38:02;3.27;;;1.70;;
19308;SDS011;9789;50.010;19.890;2022-10-03T05:40:46;2.37;;;1.67;;
19308;SDS011;9789;50.010;19.890;2022-10-03T05:43:31;1.80;;;1.63;;
19308;SDS011;9789;50.010;19.890;2022-10-03T05:46:12;1.90;;;1.50;;
19308;SDS011;9789;50.010;19.890;2022-10-03T05:48:51;2.50;;;1.80;;
19308;SDS011;9789;50.010;19.890;2022-10-03T05:54:26;1.63;;;1.43;;
19308;SDS011;9789;50.010;19.890;2022-10-03T06:00:23;2.30;;;1.60;;
19308;SDS011;9789;50.010;19.890;2022-10-03T06:03:18;2.23;;;1.67;;
19308;SDS011;9789;50.010;19.890;2022-10-03T06:06:12;2.00;;;1.70;;
19308;SDS011;9789;50.010;19.890;2022-10-03T06:08:55;3.30;;;1.90;;
19308;SDS011;9789;50.010;19.890;2022-10-03T06:11:54;2.13;;;1.83;;
19308;SDS011;9789;50.010;19.890;2022-10-03T06:20:43;5.27;;;2.13;;
19308;SDS011;9789;50.010;19.890;2022-10-03T06:29:48;2.63;;;2.00;;
19308;SDS011;9789;50.010;19.890;2022-10-03T06:32:54;3.10;;;2.00;;
19308;SDS011;9789;50.010;19.890;2022-10-03T06:36:05;2.33;;;1.60;;
19308;SDS011;9789;50.010;19.890;2022-10-03T06:45:17;2.67;;;1.70;;
19308;SDS011;9789;50.010;19.890;2022-10-03T06:51:26;2.93;;;1.80;;
19308;SDS011;9789;50.010;19.890;2022-10-03T06:54:20;4.90;;;1.73;;
19308;SDS011;9789;50.010;19.890;2022-10-03T06:57:38;2.73;;;1.90;;
19308;SDS011;9789;50.010;19.890;2022-10-03T07:00:42;4.50;;;2.00;;
19308;SDS011;9789;50.010;19.890;2022-10-03T07:03:26;3.40;;;2.00;;
19308;SDS011;9789;50.010;19.890;2022-10-03T07:06:40;2.17;;;1.67;;
19308;SDS011;9789;50.010;19.890;2022-10-03T07:09:30;2.53;;;1.50;;
19308;SDS011;9789;50.010;19.890;2022-10-03T07:12:41;4.07;;;1.90;;
19308;SDS011;9789;50.010;19.890;2022-10-03T07:18:59;4.97;;;2.27;;
19308;SDS011;9789;50.010;19.890;2022-10-03T07:21:56;4.60;;;1.90;;
19308;SDS011;9789;50.010;19.890;2022-10-03T07:27:45;4.83;;;1.80;;
19308;SDS011;9789;50.010;19.890;2022-10-03T07:30:25;2.70;;;1.67;;
19308;SDS011;9789;50.010;19.890;2022-10-03T07:36:21;3.80;;;2.00;;
19308;SDS011;9789;50.010;19.890;2022-10-03T07:39:31;2.23;;;1.80;;
19308;SDS011;9789;50.010;19.890;2022-10-03T07:42:24;2.60;;;1.50;;
19308;SDS011;9789;50.010;19.890;2022-10-03T07:51:21;2.10;;;1.70;;
19308;SDS011;9789;50.010;19.890;2022-10-03T08:03:05;3.47;;;1.70;;
19308;SDS011;9789;50.010;19.890;2022-10-03T08:06:16;5.27;;;1.70;;
19308;SDS011;9789;50.010;19.890;2022-10-03T08:08:54;3.17;;;1.80;;
19308;SDS011;9789;50.010;19.890;2022-10-03T08:11:52;2.67;;;1.83;;
19308;SDS011;9789;50.010;19.890;2022-10-03T08:14:43;4.60;;;2.20;;
19308;SDS011;9789;50.010;19.890;2022-10-03T08:17:29;2.40;;;2.17;;
19308;SDS011;9789;50.010;19.890;2022-10-03T08:23:10;3.20;;;2.67;;
19308;SDS011;9789;50.010;19.890;2022-10-03T08:26:11;2.93;;;2.60;;
19308;SDS011;9789;50.010;19.890;2022-10-03T08:28:50;3.67;;;3.17;;
19308;SDS011;9789;50.010;19.890;2022-10-03T08:31:40;5.67;;;4.50;;
19308;SDS011;9789;50.010;19.890;2022-10-03T08:34:34;12.30;;;11.17;;
19308;SDS011;9789;50.010;19.890;2022-10-03T08:37:40;22.93;;;20.63;;
19308;SDS011;9789;50.010;19.890;2022-10-03T08:44:01;28.37;;;25.37;;
19308;SDS011;9789;50.010;19.890;2022-10-03T08:49:52;25.30;;;22.80;;
19308;SDS011;9789;50.010;19.890;2022-10-03T08:52:48;23.20;;;20.90;;
19308;SDS011;9789;50.010;19.890;2022-10-03T08:55:46;20.87;;;18.87;;
19308;SDS011;9789;50.010;19.890;2022-10-03T09:07:46;16.10;;;14.50;;
19308;SDS011;9789;50.010;19.890;2022-10-03T09:14:11;13.90;;;12.60;;
19308;SDS011;9789;50.010;19.890;2022-10-03T09:17:11;14.00;;;12.60;;
19308;SDS011;9789;50.010;19.890;2022-10-03T09:20:26;13.27;;;11.53;;
19308;SDS011;9789;50.010;19.890;2022-10-03T09:23:29;11.93;;;10.67;;
19308;SDS011;9789;50.010;19.890;2022-10-03T09:26:45;12.00;;;10.23;;
19308;SDS011;9789;50.010;19.890;2022-10-03T09:36:03;9.47;;;8.33;;
19308;SDS011;9789;50.010;19.890;2022-10-03T09:48:59;6.87;;;6.00;;
19308;SDS011;9789;50.010;19.890;2022-10-03T09:51:52;6.80;;;6.07;;
19308;SDS011;9789;50.010;19.890;2022-10-03T09:57:44;5.87;;;5.23;;
19308;SDS011;9789;50.010;19.890;2022-10-03T10:00:25;5.53;;;5.03;;
19308;SDS011;9789;50.010;19.890;2022-10-03T10:03:04;5.40;;;4.90;;
19308;SDS011;9789;50.010;19.890;2022-10-03T10:06:27;5.10;;;4.70;;
19308;SDS011;9789;50.010;19.890;2022-10-03T10:09:29;6.17;;;4.37;;
19308;SDS011;9789;50.010;19.890;2022-10-03T10:18:59;5.70;;;3.37;;
19308;SDS011;9789;50.010;19.890;2022-10-03T10:21:56;3.90;;;3.60;;
19308;SDS011;9789;50.010;19.890;2022-10-03T10:24:50;3.40;;;3.10;;
19308;SDS011;9789;50.010;19.890;2022-10-03T10:40:44;2.40;;;2.20;;
19308;SDS011;9789;50.010;19.890;2022-10-03T10:43:52;2.47;;;2.20;;
19308;SDS011;9789;50.010;19.890;2022-10-03T10:47:02;2.97;;;2.50;;
19308;SDS011;9789;50.010;19.890;2022-10-03T10:49:53;2.93;;;2.50;;
19308;SDS011;9789;50.010;19.890;2022-10-03T11:05:38;2.23;;;1.97;;
19308;SDS011;9789;50.010;19.890;2022-10-03T11:11:27;2.67;;;2.17;;
19308;SDS011;9789;50.010;19.890;2022-10-03T11:17:30;1.70;;;1.60;;
19308;SDS011;9789;50.010;19.890;2022-10-03T11:20:30;2.30;;;1.70;;
19308;SDS011;9789;50.010;19.890;2022-10-03T11:26:57;1.60;;;1.50;;
19308;SDS011;9789;50.010;19.890;2022-10-03T11:29:50;1.93;;;1.73;;
19308;SDS011;9789;50.010;19.890;2022-10-03T11:36:24;2.50;;;1.70;;
19308;SDS011;9789;50.010;19.890;2022-10-03T11:39:05;2.93;;;1.87;;
19308;SDS011;9789;50.010;19.890;2022-10-03T11:41:40;2.00;;;1.63;;
19308;SDS011;9789;50.010;19.890;2022-10-03T11:44:20;1.80;;;1.50;;
19308;SDS011;9789;50.010;19.890;2022-10-03T11:47:01;1.70;;;1.57;;
19308;SDS011;9789;50.010;19.890;2022-10-03T11:53:13;2.13;;;1.57;;
19308;SDS011;9789;50.010;19.890;2022-10-03T11:55:46;1.70;;;1.40;;
19308;SDS011;9789;50.010;19.890;2022-10-03T11:58:23;1.53;;;1.30;;
19308;SDS011;9789;50.010;19.890;2022-10-03T12:01:05;1.50;;;1.30;;
19308;SDS011;9789;50.010;19.890;2022-10-03T12:03:51;1.60;;;1.43;;
19308;SDS011;9789;50.010;19.890;2022-10-03T12:06:39;1.50;;;1.40;;
19308;SDS011;9789;50.010;19.890;2022-10-03T12:09:54;1.50;;;1.40;;
19308;SDS011;9789;50.010;19.890;2022-10-03T12:12:34;1.63;;;1.53;;
19308;SDS011;9789;50.010;19.890;2022-10-03T12:15:19;3.33;;;1.80;;
19308;SDS011;9789;50.010;19.890;2022-10-03T12:17:59;2.53;;;1.83;;
19308;SDS011;9789;50.010;19.890;2022-10-03T12:20:34;1.60;;;1.50;;
19308;SDS011;9789;50.010;19.890;2022-10-03T12:23:27;1.80;;;1.50;;
19308;SDS011;9789;50.010;19.890;2022-10-03T12:26:14;2.60;;;1.23;;
19308;SDS011;9789;50.010;19.890;2022-10-03T12:28:48;1.90;;;1.60;;
19308;SDS011;9789;50.010;19.890;2022-10-03T12:31:22;2.43;;;1.63;;
19308;SDS011;9789;50.010;19.890;2022-10-03T12:33:57;1.97;;;1.43;;
19308;SDS011;9789;50.010;19.890;2022-10-03T12:36:28;1.63;;;1.37;;
19308;SDS011;9789;50.010;19.890;2022-10-03T12:39:12;2.63;;;1.70;;
19308;SDS011;9789;50.010;19.890;2022-10-03T12:41:56;1.83;;;1.60;;
19308;SDS011;9789;50.010;19.890;2022-10-03T12:44:39;4.83;;;1.70;;
19308;SDS011;9789;50.010;19.890;2022-10-03T12:47:19;4.20;;;2.03;;
19308;SDS011;9789;50.010;19.890;2022-10-03T12:50:17;4.67;;;1.90;;
19308;SDS011;9789;50.010;19.890;2022-10-03T12:53:00;2.80;;;1.63;;
19308;SDS011;9789;50.010;19.890;2022-10-03T12:55:55;3.47;;;1.70;;
19308;SDS011;9789;50.010;19.890;2022-10-03T12:58:33;2.60;;;1.80;;
19308;SDS011;9789;50.010;19.890;2022-10-03T13:01:18;3.03;;;1.70;;
19308;SDS011;9789;50.010;19.890;2022-10-03T13:03:56;4.03;;;1.70;;
19308;SDS011;9789;50.010;19.890;2022-10-03T13:06:31;1.97;;;1.40;;
19308;SDS011;9789;50.010;19.890;2022-10-03T13:09:33;2.07;;;1.43;;
19308;SDS011;9789;50.010;19.890;2022-10-03T13:12:23;1.73;;;1.43;;
19308;SDS011;9789;50.010;19.890;2022-10-03T13:18:17;3.57;;;1.70;;
19308;SDS011;9789;50.010;19.890;2022-10-03T13:20:57;3.07;;;1.77;;
19308;SDS011;9789;50.010;19.890;2022-10-03T13:41:59;2.90;;;1.80;;
19308;SDS011;9789;50.010;19.890;2022-10-03T13:44:36;1.30;;;1.20;;
19308;SDS011;9789;50.010;19.890;2022-10-03T13:47:22;2.37;;;1.80;;
